createdAt,value
2018-09-25T00:02:29.742Z,78.52
2018-09-25T00:05:04.849Z,78.59
2018-09-25T00:07:39.728Z,79.16
2018-09-25T00:10:14.660Z,78.66
2018-09-25T00:12:49.380Z,79.08
2018-09-25T00:15:24.460Z,79.21
2018-09-25T00:17:59.546Z,79.08
2018-09-25T00:20:34.429Z,79.63
2018-09-25T00:23:09.518Z,79.50
2018-09-25T00:25:44.627Z,79.98
2018-09-25T00:28:19.626Z,80.62
2018-09-25T00:30:54.651Z,80.11
2018-09-25T00:33:29.563Z,79.88
2018-09-25T00:36:04.470Z,79.92
2018-09-25T00:38:39.524Z,79.59
2018-09-25T00:41:14.612Z,80.21
2018-09-25T00:43:49.645Z,80.02
2018-09-25T00:46:24.405Z,79.19
2018-09-25T00:48:59.153Z,79.57
2018-09-25T00:51:34.479Z,80.04
2018-09-25T00:54:09.640Z,80.47
2018-09-25T00:56:44.505Z,80.53
2018-09-25T00:59:19.398Z,80.90
2018-09-25T01:01:54.462Z,79.94
2018-09-25T01:04:29.471Z,80.27
2018-09-25T01:07:04.797Z,81.14
2018-09-25T01:09:39.936Z,79.23
2018-09-25T01:12:15.325Z,80.32
2018-09-25T01:14:50.251Z,81.36
2018-09-25T01:17:25.207Z,81.07
2018-09-25T01:20:00.192Z,80.89
2018-09-25T01:22:35.148Z,81.03
2018-09-25T01:25:10.342Z,81.47
2018-09-25T01:27:45.299Z,81.12
2018-09-25T01:30:20.068Z,80.45
2018-09-25T01:32:55.191Z,80.64
2018-09-25T01:35:30.230Z,81.00
2018-09-25T01:38:05.183Z,80.79
2018-09-25T01:40:40.223Z,80.47
2018-09-25T01:43:15.602Z,81.19
2018-09-25T01:45:50.675Z,81.39
2018-09-25T01:48:25.679Z,79.79
2018-09-25T01:51:00.814Z,81.29
2018-09-25T01:53:35.660Z,80.79
2018-09-25T01:56:10.610Z,80.76
2018-09-25T01:58:45.695Z,81.00
2018-09-25T02:01:20.869Z,80.71
2018-09-25T02:03:55.783Z,81.06
2018-09-25T02:06:30.955Z,81.05
2018-09-25T02:09:06.066Z,81.16
2018-09-25T02:11:41.600Z,81.78
2018-09-25T02:14:16.618Z,81.11
2018-09-25T02:16:51.492Z,81.34
2018-09-25T02:19:26.447Z,80.65
2018-09-25T02:22:01.503Z,81.10
2018-09-25T02:24:36.823Z,81.25
2018-09-25T02:27:11.884Z,80.96
2018-09-25T02:29:47.043Z,82.03
2018-09-25T02:32:22.260Z,80.94
2018-09-25T02:34:57.347Z,81.56
2018-09-25T02:37:32.395Z,81.47
2018-09-25T02:40:07.472Z,81.05
2018-09-25T02:42:42.457Z,81.44
2018-09-25T02:45:17.785Z,79.80
2018-09-25T02:47:52.707Z,80.09
2018-09-25T02:50:27.682Z,81.66
2018-09-25T02:53:02.757Z,82.18
2018-09-25T02:55:37.647Z,82.11
2018-09-25T02:58:12.910Z,81.73
2018-09-25T03:00:47.960Z,81.26
2018-09-25T03:03:24.204Z,79.66
2018-09-25T03:05:59.534Z,80.79
2018-09-25T03:08:34.610Z,81.44
2018-09-25T03:11:09.637Z,82.94
2018-09-25T03:13:44.646Z,82.84
2018-09-25T03:16:19.825Z,82.81
2018-09-25T03:18:54.795Z,81.29
2018-09-25T03:21:29.819Z,81.94
2018-09-25T03:24:04.809Z,82.72
2018-09-25T03:26:39.728Z,81.94
2018-09-25T03:29:14.698Z,82.27
2018-09-25T03:31:49.486Z,83.37
2018-09-25T03:34:24.376Z,82.53
2018-09-25T03:36:59.500Z,81.69
2018-09-25T03:39:34.924Z,82.23
2018-09-25T03:42:10.463Z,83.74
2018-09-25T03:44:45.514Z,82.98
2018-09-25T03:47:20.447Z,82.42
2018-09-25T03:49:55.623Z,81.96
2018-09-25T03:52:30.521Z,81.96
2018-09-25T03:55:05.596Z,82.40
2018-09-25T03:57:40.488Z,82.96
2018-09-25T04:00:15.010Z,82.75
2018-09-25T04:02:50.108Z,81.73
2018-09-25T04:05:25.086Z,81.36
2018-09-25T04:07:59.835Z,82.19
2018-09-25T04:10:34.800Z,82.79
2018-09-25T04:13:10.161Z,82.45
2018-09-25T04:15:45.605Z,82.68
2018-09-25T04:18:21.024Z,81.87
2018-09-25T04:20:55.982Z,81.94
2018-09-25T04:23:30.806Z,82.23
2018-09-25T04:26:06.221Z,83.42
2018-09-25T04:28:41.288Z,83.11
2018-09-25T04:31:16.256Z,82.80
2018-09-25T04:33:51.380Z,82.80
2018-09-25T04:36:26.996Z,82.12
2018-09-25T04:39:02.181Z,81.18
2018-09-25T04:41:37.211Z,81.60
2018-09-25T04:44:13.306Z,82.27
2018-09-25T04:46:48.428Z,82.74
2018-09-25T04:49:23.671Z,83.62
2018-09-25T04:51:58.759Z,83.84
2018-09-25T04:54:33.556Z,83.24
2018-09-25T04:57:08.682Z,82.07
2018-09-25T04:59:43.804Z,82.78
2018-09-25T05:02:18.907Z,82.72
2018-09-25T05:04:54.011Z,82.58
2018-09-25T05:07:29.161Z,82.49
2018-09-25T05:10:04.363Z,83.18
2018-09-25T05:12:39.615Z,82.23
2018-09-25T05:15:14.661Z,83.36
2018-09-25T05:17:49.901Z,83.73
2018-09-25T05:20:24.916Z,82.68
2018-09-25T05:23:01.192Z,82.22
2018-09-25T05:25:36.121Z,82.46
2018-09-25T05:28:11.707Z,83.16
2018-09-25T05:30:46.525Z,83.42
2018-09-25T05:33:21.558Z,83.65
2018-09-25T05:35:56.574Z,83.85
2018-09-25T05:38:31.396Z,82.74
2018-09-25T05:41:06.434Z,82.70
2018-09-25T05:43:41.452Z,81.99
2018-09-25T05:46:16.361Z,81.42
2018-09-25T05:48:51.502Z,82.83
2018-09-25T05:51:26.401Z,83.49
2018-09-25T05:54:01.511Z,82.34
2018-09-25T05:56:36.460Z,82.34
2018-09-25T05:59:11.458Z,82.58
2018-09-25T06:01:46.379Z,82.31
2018-09-25T06:04:21.399Z,83.18
2018-09-25T06:06:56.429Z,83.40
2018-09-25T06:09:31.338Z,83.87
2018-09-25T06:12:06.638Z,83.02
2018-09-25T06:14:42.723Z,82.37
2018-09-25T06:17:17.897Z,82.23
2018-09-25T06:19:52.787Z,81.84
2018-09-25T06:22:27.872Z,82.20
2018-09-25T06:25:03.049Z,81.59
2018-09-25T06:27:38.365Z,81.12
2018-09-25T06:30:13.942Z,80.92
2018-09-25T06:32:49.035Z,80.45
2018-09-25T06:35:24.077Z,80.32
2018-09-25T06:37:59.092Z,80.14
2018-09-25T06:40:33.943Z,79.58
2018-09-25T06:43:09.065Z,79.32
2018-09-25T06:45:44.120Z,79.76
2018-09-25T06:48:19.238Z,79.10
2018-09-25T06:50:54.097Z,79.79
2018-09-25T06:53:29.157Z,79.21
2018-09-25T06:56:04.008Z,78.54
2018-09-25T06:58:39.035Z,78.55
2018-09-25T07:01:14.358Z,78.92
2018-09-25T07:03:49.473Z,78.63
2018-09-25T07:06:24.261Z,78.23
2018-09-25T07:08:59.582Z,77.93
2018-09-25T07:11:34.438Z,77.31
2018-09-25T07:14:09.844Z,77.39
2018-09-25T07:16:44.839Z,77.39
2018-09-25T07:19:19.707Z,77.18
2018-09-25T07:21:54.709Z,76.39
2018-09-25T07:24:29.904Z,76.39
2018-09-25T07:27:05.295Z,75.92
2018-09-25T07:29:40.107Z,75.97
2018-09-25T07:32:15.297Z,76.17
2018-09-25T07:34:50.184Z,75.97
2018-09-25T07:37:25.131Z,75.56
2018-09-25T07:40:00.168Z,75.06
2018-09-25T07:42:35.475Z,75.12
2018-09-25T07:45:10.579Z,74.64
2018-09-25T07:47:45.463Z,75.15
2018-09-25T07:50:20.321Z,74.25
2018-09-25T07:52:55.234Z,73.69
2018-09-25T07:55:30.348Z,73.31
2018-09-25T07:58:05.463Z,73.10
2018-09-25T08:00:40.306Z,72.89
2018-09-25T08:03:15.336Z,72.63
2018-09-25T08:05:50.399Z,72.35
2018-09-25T08:08:25.383Z,72.04
2018-09-25T08:11:00.398Z,70.82
2018-09-25T08:13:35.428Z,70.41
2018-09-25T08:16:11.634Z,70.75
2018-09-25T08:18:46.653Z,71.14
2018-09-25T08:21:21.640Z,71.61
2018-09-25T08:23:56.459Z,70.82
2018-09-25T08:26:31.722Z,71.33
2018-09-25T08:29:06.821Z,70.56
2018-09-25T08:31:41.602Z,70.38
2018-09-25T08:34:16.516Z,70.25
2018-09-25T08:36:51.689Z,70.16
2018-09-25T08:39:26.716Z,70.09
2018-09-25T08:42:01.621Z,70.21
2018-09-25T08:44:36.692Z,69.31
2018-09-25T08:47:11.833Z,69.29
2018-09-25T08:49:46.897Z,69.01
2018-09-25T08:52:21.905Z,68.75
2018-09-25T08:54:56.678Z,68.31
2018-09-25T08:57:32.019Z,68.05
2018-09-25T09:00:06.964Z,67.57
2018-09-25T09:02:42.157Z,66.98
2018-09-25T09:05:17.273Z,68.01
2018-09-25T09:07:52.093Z,68.20
2018-09-25T09:10:27.098Z,67.44
2018-09-25T09:13:02.208Z,67.36
2018-09-25T09:15:37.617Z,65.97
2018-09-25T09:18:12.754Z,66.66
2018-09-25T09:20:47.534Z,65.56
2018-09-25T09:23:22.311Z,65.51
2018-09-25T09:25:57.174Z,65.29
2018-09-25T09:28:32.243Z,64.66
2018-09-25T09:31:07.266Z,64.35
2018-09-25T09:33:42.565Z,64.35
2018-09-25T09:36:17.690Z,64.42
2018-09-25T09:38:52.467Z,64.80
2018-09-25T09:41:27.472Z,63.84
2018-09-25T09:44:02.219Z,63.18
2018-09-25T09:46:37.332Z,63.20
2018-09-25T09:49:12.306Z,63.22
2018-09-25T09:51:47.626Z,63.46
2018-09-25T09:54:22.385Z,63.50
2018-09-25T09:56:57.252Z,62.89
2018-09-25T09:59:32.179Z,62.61
2018-09-25T10:02:07.177Z,61.72
2018-09-25T10:04:42.269Z,62.07
2018-09-25T10:07:17.343Z,61.91
2018-09-25T10:09:59.065Z,60.86
2018-09-25T10:12:40.437Z,59.76
2018-09-25T10:15:15.617Z,59.12
2018-09-25T10:17:50.364Z,59.41
2018-09-25T10:20:25.237Z,59.55
2018-09-25T10:23:00.350Z,59.54
2018-09-25T10:25:35.721Z,58.82
2018-09-25T10:28:10.767Z,58.58
2018-09-25T10:30:45.582Z,58.33
2018-09-25T10:33:20.657Z,58.07
2018-09-25T10:35:55.675Z,57.21
2018-09-25T10:38:30.765Z,58.36
2018-09-25T10:41:05.922Z,58.15
2018-09-25T10:43:40.779Z,57.62
2018-09-25T10:46:15.593Z,57.85
2018-09-25T10:48:50.546Z,57.82
2018-09-25T10:51:25.635Z,56.58
2018-09-25T10:54:00.807Z,55.62
2018-09-25T10:56:35.748Z,55.41
2018-09-25T10:59:11.063Z,54.54
2018-09-25T11:01:45.936Z,54.92
2018-09-25T11:04:21.090Z,54.72
2018-09-25T11:06:56.075Z,54.27
2018-09-25T11:09:31.167Z,54.19
2018-09-25T11:12:06.281Z,52.47
2018-09-25T11:14:41.212Z,50.62
2018-09-25T11:17:16.268Z,51.22
2018-09-25T11:19:52.604Z,51.97
2018-09-25T11:22:27.647Z,52.21
2018-09-25T11:25:02.474Z,51.77
2018-09-25T11:27:37.581Z,50.59
2018-09-25T11:30:12.767Z,50.58
2018-09-25T11:32:47.778Z,50.46
2018-09-25T11:35:22.947Z,49.95
2018-09-25T11:37:57.967Z,51.46
2018-09-25T11:40:32.989Z,50.68
2018-09-25T11:43:07.913Z,51.21
2018-09-25T11:45:43.380Z,51.49
2018-09-25T11:48:18.643Z,50.77
2018-09-25T11:50:53.620Z,52.39
2018-09-25T11:53:28.709Z,51.97
2018-09-25T11:56:03.748Z,52.33
2018-09-25T11:58:38.723Z,51.96
2018-09-25T12:01:14.039Z,51.57
2018-09-25T12:03:49.113Z,51.07
2018-09-25T12:06:24.102Z,50.53
2018-09-25T12:08:59.524Z,51.08
2018-09-25T12:11:34.385Z,51.09
2018-09-25T12:14:09.838Z,52.31
2018-09-25T12:16:45.520Z,51.26
2018-09-25T12:19:21.083Z,50.97
2018-09-25T12:21:56.450Z,50.45
2018-09-25T12:24:31.420Z,50.34
2018-09-25T12:27:06.424Z,49.70
2018-09-25T12:29:41.413Z,49.48
2018-09-25T12:32:17.009Z,48.99
2018-09-25T12:34:52.064Z,48.27
2018-09-25T12:37:27.197Z,48.05
2018-09-25T12:40:02.505Z,48.00
2018-09-25T12:42:37.518Z,48.50
2018-09-25T12:45:12.631Z,48.08
2018-09-25T12:47:47.605Z,47.52
2018-09-25T12:50:22.948Z,48.00
2018-09-25T12:52:57.825Z,47.76
2018-09-25T12:55:33.058Z,46.72
2018-09-25T12:58:08.224Z,46.69
2018-09-25T13:00:43.369Z,47.44
2018-09-25T13:03:18.368Z,47.46
2018-09-25T13:05:53.472Z,46.86
2018-09-25T13:08:28.568Z,46.95
2018-09-25T13:11:03.667Z,46.78
2018-09-25T13:13:38.766Z,45.33
2018-09-25T13:16:14.124Z,44.33
2018-09-25T13:18:49.072Z,43.65
2018-09-25T13:21:24.516Z,44.10
2018-09-25T13:23:59.841Z,44.55
2018-09-25T13:26:35.223Z,43.28
2018-09-25T13:29:10.697Z,43.45
2018-09-25T13:31:46.045Z,42.44
2018-09-25T13:34:21.283Z,42.49
2018-09-25T13:36:57.181Z,41.04
2018-09-25T13:39:33.280Z,41.37
2018-09-25T13:42:08.909Z,42.42
2018-09-25T13:44:44.302Z,40.85
2018-09-25T13:47:19.572Z,39.68
2018-09-25T13:49:55.301Z,39.18
2018-09-25T13:52:30.461Z,40.01
2018-09-25T13:55:05.607Z,39.31
2018-09-25T13:57:41.035Z,40.19
2018-09-25T14:00:16.233Z,39.12
2018-09-25T14:02:51.443Z,39.37
2018-09-25T14:05:26.557Z,39.20
2018-09-25T14:08:02.213Z,39.18
2018-09-25T14:10:37.614Z,37.45
2018-09-25T14:13:12.913Z,37.57
2018-09-25T14:15:48.504Z,38.22
2018-09-25T14:18:24.391Z,37.43
2018-09-25T14:20:59.618Z,38.33
2018-09-25T14:23:34.865Z,38.52
2018-09-25T14:26:10.286Z,39.17
2018-09-25T14:28:45.598Z,39.30
2018-09-25T14:31:20.761Z,39.89
2018-09-25T14:33:55.967Z,40.39
2018-09-25T14:36:31.279Z,39.51
2018-09-25T14:39:06.491Z,40.42
2018-09-25T14:41:41.603Z,41.39
2018-09-25T14:44:17.029Z,42.04
2018-09-25T14:46:52.789Z,42.05
2018-09-25T14:49:28.077Z,42.58
2018-09-25T14:52:03.387Z,43.22
2018-09-25T14:54:38.815Z,43.51
2018-09-25T14:57:14.322Z,44.21
2018-09-25T14:59:49.673Z,44.40
2018-09-25T15:02:25.025Z,44.49
2018-09-25T15:05:00.560Z,45.11
2018-09-25T15:07:36.670Z,45.95
2018-09-25T15:10:12.066Z,46.61
2018-09-25T15:12:47.192Z,44.59
2018-09-25T15:15:22.591Z,44.82
2018-09-25T15:17:57.854Z,45.44
2018-09-25T15:20:33.130Z,45.86
2018-09-25T15:23:08.342Z,45.85
2018-09-25T15:25:43.697Z,45.18
2018-09-25T15:28:19.084Z,45.48
2018-09-25T15:30:54.647Z,45.90
2018-09-25T15:33:29.764Z,46.46
2018-09-25T15:36:05.587Z,48.05
2018-09-25T15:38:40.568Z,48.12
2018-09-25T15:41:15.813Z,48.26
2018-09-25T15:43:50.841Z,49.44
2018-09-25T15:46:25.896Z,49.45
2018-09-25T15:49:01.381Z,49.45
2018-09-25T15:51:36.681Z,49.30
2018-09-25T15:54:12.300Z,49.54
2018-09-25T15:56:47.894Z,50.14
2018-09-25T15:59:22.960Z,49.31
2018-09-25T16:01:58.426Z,49.17
2018-09-25T16:04:34.202Z,48.06
2018-09-25T16:07:09.586Z,48.78
2018-09-25T16:09:44.907Z,49.08
2018-09-25T16:12:20.035Z,48.38
2018-09-25T16:14:55.106Z,48.24
2018-09-25T16:17:30.264Z,48.98
2018-09-25T16:20:05.463Z,48.97
2018-09-25T16:22:40.414Z,47.89
2018-09-25T16:25:15.452Z,49.46
2018-09-25T16:27:50.364Z,48.82
2018-09-25T16:30:27.342Z,49.32
2018-09-25T16:33:02.479Z,50.51
2018-09-25T16:35:37.601Z,50.99
2018-09-25T16:38:12.730Z,50.44
2018-09-25T16:40:47.686Z,50.25
2018-09-25T16:43:22.862Z,51.17
2018-09-25T16:45:58.003Z,52.62
2018-09-25T16:48:33.053Z,52.35
2018-09-25T16:51:08.000Z,52.45
2018-09-25T16:53:43.450Z,53.11
2018-09-25T16:56:18.716Z,53.74
2018-09-25T16:58:54.092Z,53.59
2018-09-25T17:01:29.047Z,54.96
2018-09-25T17:04:04.188Z,55.04
2018-09-25T17:06:39.355Z,55.59
2018-09-25T17:09:14.422Z,55.46
2018-09-25T17:11:49.256Z,55.58
2018-09-25T17:14:24.295Z,55.54
2018-09-25T17:16:59.666Z,56.58
2018-09-25T17:19:34.744Z,56.26
2018-09-25T17:22:09.949Z,57.00
2018-09-25T17:24:46.165Z,57.46
2018-09-25T17:27:21.176Z,57.42
2018-09-25T17:29:56.517Z,58.04
2018-09-25T17:32:31.642Z,58.56
2018-09-25T17:35:06.736Z,59.78
2018-09-25T17:37:41.965Z,59.41
2018-09-25T17:40:17.149Z,60.56
2018-09-25T17:42:52.496Z,60.66
2018-09-25T17:45:27.556Z,61.72
2018-09-25T17:48:03.086Z,62.09
2018-09-25T17:50:38.187Z,61.28
2018-09-25T17:53:13.436Z,62.22
2018-09-25T17:55:48.320Z,61.77
2018-09-25T17:58:23.465Z,61.71
2018-09-25T18:00:58.637Z,62.27
2018-09-25T18:03:33.660Z,61.67
2018-09-25T18:06:08.598Z,61.80
2018-09-25T18:08:43.655Z,61.87
2018-09-25T18:11:18.512Z,62.01
2018-09-25T18:13:53.581Z,62.07
2018-09-25T18:16:28.782Z,62.45
2018-09-25T18:19:04.148Z,63.06
2018-09-25T18:21:39.271Z,63.10
2018-09-25T18:24:14.303Z,63.38
2018-09-25T18:26:49.448Z,64.12
2018-09-25T18:29:24.418Z,64.75
2018-09-25T18:31:59.712Z,65.23
2018-09-25T18:34:34.709Z,65.60
2018-09-25T18:37:10.273Z,65.70
2018-09-25T18:39:45.360Z,65.89
2018-09-25T18:42:20.618Z,66.47
2018-09-25T18:44:55.898Z,66.77
2018-09-25T18:47:31.076Z,67.01
2018-09-25T18:50:06.863Z,67.37
2018-09-25T18:52:41.945Z,67.21
2018-09-25T18:55:17.160Z,67.43
2018-09-25T18:57:52.247Z,67.53
2018-09-25T19:00:27.971Z,66.90
2018-09-25T19:03:03.718Z,67.41
2018-09-25T19:05:38.906Z,68.34
2018-09-25T19:08:14.114Z,68.46
2018-09-25T19:10:49.379Z,68.69
2018-09-25T19:13:24.425Z,68.33
2018-09-25T19:15:59.406Z,68.67
2018-09-25T19:18:34.571Z,68.55
2018-09-25T19:21:09.801Z,69.21
2018-09-25T19:23:45.137Z,68.70
2018-09-25T19:26:20.272Z,69.70
2018-09-25T19:28:55.574Z,69.76
2018-09-25T19:31:30.561Z,69.24
2018-09-25T19:34:05.728Z,69.30
2018-09-25T19:36:40.815Z,69.39
2018-09-25T19:39:15.938Z,70.43
2018-09-25T19:41:50.939Z,70.38
2018-09-25T19:44:26.105Z,69.89
2018-09-25T19:47:01.263Z,71.03
2018-09-25T19:49:36.345Z,70.13
2018-09-25T19:52:11.797Z,69.94
2018-09-25T19:54:46.737Z,70.67
2018-09-25T19:57:21.862Z,70.75
2018-09-25T19:59:57.090Z,70.17
2018-09-25T20:02:32.320Z,70.72
2018-09-25T20:05:07.515Z,70.84
2018-09-25T20:07:42.734Z,69.66
2018-09-25T20:10:18.019Z,69.18
2018-09-25T20:12:53.833Z,70.12
2018-09-25T20:15:29.109Z,70.01
2018-09-25T20:18:04.100Z,69.98
2018-09-25T20:20:39.384Z,70.21
2018-09-25T20:23:14.518Z,70.85
2018-09-25T20:25:50.533Z,71.25
2018-09-25T20:28:26.324Z,71.31
2018-09-25T20:31:01.836Z,70.83
2018-09-25T20:33:37.203Z,71.12
2018-09-25T20:36:13.113Z,71.49
2018-09-25T20:38:48.585Z,71.09
2018-09-25T20:44:07.219Z,70.35
2018-09-25T20:46:42.902Z,70.28
2018-09-25T20:49:17.883Z,70.92
2018-09-25T20:51:52.855Z,71.17
2018-09-25T20:54:28.323Z,70.42
2018-09-25T20:57:03.452Z,71.36
2018-09-25T20:59:38.552Z,71.31
2018-09-25T21:02:13.922Z,71.75
2018-09-25T21:04:48.953Z,71.37
2018-09-25T21:07:24.292Z,71.67
2018-09-25T21:09:59.322Z,71.17
2018-09-25T21:12:34.251Z,71.06
2018-09-25T21:15:09.512Z,72.23
2018-09-25T21:17:44.590Z,71.94
2018-09-25T21:20:20.191Z,72.97
2018-09-25T21:22:55.235Z,74.00
2018-09-25T21:25:30.222Z,74.19
2018-09-25T21:28:05.770Z,74.40
2018-09-25T21:30:41.226Z,73.74
2018-09-25T21:33:16.788Z,73.88
2018-09-25T21:35:52.381Z,73.50
2018-09-25T21:38:28.149Z,74.01
2018-09-25T21:41:03.853Z,73.87
2018-09-25T21:43:39.480Z,72.81
2018-09-25T21:46:15.102Z,73.36
2018-09-25T21:48:50.691Z,72.56
2018-09-25T21:51:26.301Z,73.20
2018-09-25T21:54:01.579Z,72.66
2018-09-25T21:56:37.664Z,72.27
2018-09-25T21:59:13.396Z,71.16
2018-09-25T22:01:49.748Z,71.42
2018-09-25T22:04:25.236Z,71.58
2018-09-25T22:07:00.690Z,71.38
2018-09-25T22:09:36.369Z,71.42
2018-09-25T22:12:12.206Z,71.75
2018-09-25T22:14:47.675Z,70.38
2018-09-25T22:17:23.327Z,70.91
2018-09-25T22:19:58.909Z,71.09
2018-09-25T22:22:34.361Z,71.03
2018-09-25T22:25:10.307Z,70.42
2018-09-25T22:27:45.918Z,70.31
2018-09-25T22:30:21.140Z,70.58
2018-09-25T22:32:57.084Z,70.90
2018-09-25T22:35:33.216Z,70.34
2018-09-25T22:38:08.984Z,70.85
2018-09-25T22:40:44.522Z,71.32
2018-09-25T22:43:20.103Z,70.77
2018-09-25T22:45:55.475Z,70.67
2018-09-25T22:48:31.316Z,70.52
2018-09-25T22:51:06.826Z,70.70
2018-09-25T22:53:42.328Z,70.53
2018-09-25T22:56:18.188Z,71.24
2018-09-25T22:58:54.042Z,71.29
2018-09-25T23:01:29.442Z,71.52
2018-09-25T23:04:05.301Z,71.19
2018-09-25T23:06:40.848Z,71.70
2018-09-25T23:09:16.406Z,70.85
2018-09-25T23:11:51.635Z,70.61
2018-09-25T23:14:27.260Z,71.32
2018-09-25T23:17:02.503Z,71.32
2018-09-25T23:19:37.875Z,71.11
2018-09-25T23:22:13.414Z,70.75
2018-09-25T23:24:48.846Z,71.34
2018-09-25T23:27:25.096Z,70.36
2018-09-25T23:30:00.300Z,70.36
2018-09-25T23:32:35.775Z,70.62
2018-09-25T23:35:11.327Z,70.45
2018-09-25T23:37:46.550Z,70.46
2018-09-25T23:40:32.864Z,70.33
2018-09-25T23:43:12.477Z,70.07
2018-09-25T23:45:47.777Z,70.57
2018-09-25T23:48:26.130Z,70.99
2018-09-25T23:51:03.770Z,71.53
2018-09-25T23:53:37.984Z,71.81
2018-09-25T23:56:19.331Z,71.87
2018-09-25T23:58:54.165Z,71.55
